createdAt,value
2017-09-11T00:00:41.396Z,0
2017-09-11T00:01:51.644Z,0
2017-09-11T00:03:01.896Z,0
2017-09-11T00:04:11.837Z,0
2017-09-11T00:05:22.092Z,0
2017-09-11T00:06:32.594Z,0
2017-09-11T00:07:42.214Z,0
2017-09-11T00:08:52.469Z,0
2017-09-11T00:10:02.740Z,0
2017-09-11T00:11:12.673Z,0
2017-09-11T00:12:22.870Z,0
2017-09-11T00:13:33.124Z,0
2017-09-11T00:14:43.403Z,0
2017-09-11T00:15:53.653Z,0
2017-09-11T00:17:04.389Z,0
2017-09-11T00:18:14.913Z,0
2017-09-11T00:19:25.164Z,0
2017-09-11T00:20:35.415Z,0
2017-09-11T00:21:45.667Z,0
2017-09-11T00:22:55.611Z,0
2017-09-11T00:24:05.805Z,0
2017-09-11T00:25:16.417Z,0
2017-09-11T00:26:26.361Z,0
2017-09-11T00:27:36.611Z,0
2017-09-11T00:28:46.859Z,0
2017-09-11T00:29:57.413Z,0
2017-09-11T00:31:07.346Z,0
2017-09-11T00:32:17.272Z,0
2017-09-11T00:33:27.509Z,0
2017-09-11T00:34:37.757Z,0
2017-09-11T00:35:47.934Z,0
2017-09-11T00:36:58.184Z,0
2017-09-11T00:38:08.120Z,0
2017-09-11T00:39:18.372Z,0
2017-09-11T00:40:28.324Z,0
2017-09-11T00:41:38.561Z,0
2017-09-11T00:42:48.835Z,0
2017-09-11T00:43:58.766Z,0
2017-09-11T00:45:09.008Z,0
2017-09-11T00:46:19.259Z,0
2017-09-11T00:47:29.442Z,0
2017-09-11T00:48:39.384Z,0
2017-09-11T00:49:49.633Z,0
2017-09-11T00:50:59.897Z,0
2017-09-11T00:52:10.141Z,0
2017-09-11T00:53:20.643Z,0
2017-09-11T00:54:30.581Z,0
2017-09-11T00:55:40.837Z,0
2017-09-11T00:56:51.093Z,0
2017-09-11T00:58:01.353Z,0
2017-09-11T00:59:11.858Z,0
2017-09-11T01:00:21.787Z,0
2017-09-11T01:01:31.728Z,0
2017-09-11T01:02:42.003Z,0
2017-09-11T01:03:51.934Z,0
2017-09-11T01:05:02.114Z,0
2017-09-11T01:06:12.058Z,0
2017-09-11T01:07:22.306Z,0
2017-09-11T01:08:32.557Z,0
2017-09-11T01:09:42.803Z,0
2017-09-11T01:10:53.307Z,0
2017-09-11T01:12:03.561Z,0
2017-09-11T01:13:13.816Z,0
2017-09-11T01:14:24.076Z,0
2017-09-11T01:15:34.008Z,0
2017-09-11T01:16:43.873Z,0
2017-09-11T01:17:53.798Z,0
2017-09-11T01:19:04.048Z,0
2017-09-11T01:20:13.987Z,0
2017-09-11T01:21:24.244Z,0
2017-09-11T01:22:34.136Z,0
2017-09-11T01:23:44.415Z,0
2017-09-11T01:24:54.664Z,0
2017-09-11T01:26:04.918Z,0
2017-09-11T01:27:14.866Z,0
2017-09-11T01:28:25.050Z,0
2017-09-11T01:29:34.985Z,0
2017-09-11T01:30:45.257Z,0
2017-09-11T01:31:55.511Z,0
2017-09-11T01:33:05.449Z,0
2017-09-11T01:34:15.636Z,0
2017-09-11T01:35:25.884Z,0
2017-09-11T01:36:35.815Z,0
2017-09-11T01:37:45.748Z,0
2017-09-11T01:38:55.680Z,0
2017-09-11T01:40:06.187Z,0
2017-09-11T01:41:16.122Z,0
2017-09-11T01:42:26.374Z,0
2017-09-11T01:43:36.633Z,0
2017-09-11T01:44:46.881Z,0
2017-09-11T01:45:57.072Z,0
2017-09-11T01:47:07.318Z,0
2017-09-11T01:48:17.558Z,0
2017-09-11T01:49:27.489Z,0
2017-09-11T01:50:37.737Z,0
2017-09-11T01:51:47.922Z,0
2017-09-11T01:52:57.541Z,0
2017-09-11T01:54:07.483Z,0
2017-09-11T01:55:17.414Z,0
2017-09-11T01:56:27.344Z,0
2017-09-11T01:57:37.837Z,0
2017-09-11T01:58:48.101Z,0
2017-09-11T01:59:58.043Z,0
2017-09-11T02:01:08.298Z,0
2017-09-11T02:02:18.245Z,0
2017-09-11T02:03:28.742Z,0
2017-09-11T02:04:39.045Z,0
2017-09-11T02:05:48.973Z,0
2017-09-11T02:06:59.216Z,0
2017-09-11T02:08:09.153Z,0
2017-09-11T02:09:19.339Z,0
2017-09-11T02:10:29.273Z,0
2017-09-11T02:11:39.200Z,0
2017-09-11T02:12:49.447Z,0
2017-09-11T02:13:59.373Z,0
2017-09-11T02:15:09.875Z,0
2017-09-11T02:16:20.133Z,0
2017-09-11T02:17:30.413Z,0
2017-09-11T02:18:40.666Z,0
2017-09-11T02:19:50.607Z,0
2017-09-11T02:21:00.479Z,0
2017-09-11T02:22:10.406Z,0
2017-09-11T02:23:20.653Z,0
2017-09-11T02:24:30.904Z,0
2017-09-11T02:25:40.521Z,0
2017-09-11T02:26:50.708Z,0
2017-09-11T02:28:00.973Z,0
2017-09-11T02:29:11.218Z,0
2017-09-11T02:30:21.476Z,0
2017-09-11T02:31:31.417Z,0
2017-09-11T02:32:41.914Z,0
2017-09-11T02:33:52.168Z,0
2017-09-11T02:35:02.421Z,0
2017-09-11T02:36:12.670Z,0
2017-09-11T02:37:22.604Z,0
2017-09-11T02:38:33.111Z,0
2017-09-11T02:39:43.061Z,0
2017-09-11T02:40:52.679Z,0
2017-09-11T02:42:02.625Z,0
2017-09-11T02:43:12.556Z,0
2017-09-11T02:44:22.745Z,0
2017-09-11T02:45:32.993Z,0
2017-09-11T02:46:42.934Z,0
2017-09-11T02:47:52.885Z,0
2017-09-11T02:49:02.815Z,0
2017-09-11T02:50:13.320Z,0
2017-09-11T02:51:23.264Z,0
2017-09-11T02:52:33.226Z,0
2017-09-11T02:53:43.497Z,0
2017-09-11T02:54:53.741Z,0
2017-09-11T02:56:04.236Z,0
2017-09-11T02:57:14.483Z,0
2017-09-11T02:58:24.425Z,0
2017-09-11T02:59:34.362Z,0
2017-09-11T03:00:44.602Z,0
2017-09-11T03:01:55.113Z,0
2017-09-11T03:03:05.364Z,0
2017-09-11T03:04:15.615Z,0
2017-09-11T03:05:25.873Z,0
2017-09-11T03:06:35.812Z,0
2017-09-11T03:07:46.058Z,0
2017-09-11T03:08:56.313Z,0
2017-09-11T03:10:06.582Z,0
2017-09-11T03:11:16.828Z,0
2017-09-11T03:12:27.066Z,0
2017-09-11T03:13:37.562Z,0
2017-09-11T03:14:47.509Z,0
2017-09-11T03:15:57.434Z,0
2017-09-11T03:17:07.375Z,0
2017-09-11T03:18:17.307Z,0
2017-09-11T03:19:27.830Z,0
2017-09-11T03:20:38.068Z,0
2017-09-11T03:21:47.689Z,0
2017-09-11T03:22:57.935Z,0
2017-09-11T03:24:07.870Z,0
2017-09-11T03:25:18.043Z,0
2017-09-11T03:26:27.974Z,0
2017-09-11T03:27:37.914Z,0
2017-09-11T03:28:48.167Z,0
2017-09-11T03:29:58.105Z,0
2017-09-11T03:31:08.608Z,0
2017-09-11T03:32:18.864Z,0
2017-09-11T03:33:28.835Z,0
2017-09-11T03:34:39.092Z,0
2017-09-11T03:35:49.345Z,0
2017-09-11T03:36:59.859Z,0
2017-09-11T03:38:09.788Z,0
2017-09-11T03:39:20.033Z,0
2017-09-11T03:40:30.285Z,0
2017-09-11T03:41:40.535Z,0
2017-09-11T03:42:51.084Z,0
2017-09-11T03:44:01.330Z,0
2017-09-11T03:45:11.583Z,0
2017-09-11T03:46:21.828Z,0
2017-09-11T03:47:31.763Z,0
2017-09-11T03:48:42.274Z,0
2017-09-11T03:49:52.235Z,0
2017-09-11T03:51:02.487Z,0
2017-09-11T03:52:12.109Z,0
2017-09-11T03:53:22.361Z,0
2017-09-11T03:54:32.865Z,0
2017-09-11T03:55:43.115Z,0
2017-09-11T03:56:53.364Z,0
2017-09-11T03:58:03.613Z,0
2017-09-11T03:59:13.867Z,0
2017-09-11T04:00:24.051Z,0
2017-09-11T04:01:34.316Z,0
2017-09-11T04:02:44.562Z,0
2017-09-11T04:03:54.492Z,0
2017-09-11T04:05:04.428Z,0
2017-09-11T04:06:14.936Z,0
2017-09-11T04:07:25.178Z,0
2017-09-11T04:08:35.441Z,0
2017-09-11T04:09:45.693Z,0
2017-09-11T04:10:55.973Z,0
2017-09-11T04:12:06.483Z,0
2017-09-11T04:13:16.725Z,0
2017-09-11T04:14:26.350Z,0
2017-09-11T04:15:36.281Z,0
2017-09-11T04:16:46.225Z,0
2017-09-11T04:17:56.729Z,0
2017-09-11T04:19:06.972Z,0
2017-09-11T04:20:17.222Z,0
2017-09-11T04:21:27.480Z,0
2017-09-11T04:22:37.955Z,0
2017-09-11T04:23:48.157Z,5
2017-09-11T04:24:58.086Z,5
2017-09-11T04:26:08.375Z,5
2017-09-11T04:27:18.620Z,5
2017-09-11T04:28:28.886Z,10
2017-09-11T04:29:39.119Z,10
2017-09-11T04:30:49.059Z,10
2017-09-11T04:31:59.303Z,10
2017-09-11T04:33:09.551Z,15
2017-09-11T04:34:19.182Z,15
2017-09-11T04:35:29.371Z,15
2017-09-11T04:36:39.625Z,20
2017-09-11T04:37:49.884Z,20
2017-09-11T04:38:59.813Z,25
2017-09-11T04:40:09.742Z,25
2017-09-11T04:41:20.245Z,30
2017-09-11T04:42:30.489Z,30
2017-09-11T04:43:40.416Z,35
2017-09-11T04:44:50.386Z,35
2017-09-11T04:46:00.631Z,40
2017-09-11T04:47:10.814Z,40
2017-09-11T04:48:21.057Z,45
2017-09-11T04:49:30.706Z,45
2017-09-11T04:50:40.962Z,50
2017-09-11T04:51:50.891Z,50
2017-09-11T04:53:01.396Z,55
2017-09-11T04:54:11.339Z,60
2017-09-11T04:55:21.760Z,60
2017-09-11T04:56:32.014Z,65
2017-09-11T04:57:42.264Z,65
2017-09-11T04:58:52.440Z,70
2017-09-11T05:00:02.382Z,75
2017-09-11T05:01:12.633Z,75
2017-09-11T05:02:22.892Z,80
2017-09-11T05:03:33.152Z,85
2017-09-11T05:04:43.656Z,85
2017-09-11T05:05:53.596Z,90
2017-09-11T05:07:03.853Z,95
2017-09-11T05:08:14.109Z,95
2017-09-11T05:09:23.413Z,100
2017-09-11T05:10:33.644Z,105
2017-09-11T05:11:43.890Z,110
2017-09-11T05:12:54.159Z,110
2017-09-11T05:14:04.408Z,115
2017-09-11T05:15:14.656Z,120
2017-09-11T05:16:24.524Z,125
2017-09-11T05:17:34.776Z,130
2017-09-11T05:18:45.040Z,130
2017-09-11T05:19:55.294Z,130
2017-09-11T05:21:05.541Z,135
2017-09-11T05:22:15.743Z,140
2017-09-11T05:23:25.994Z,145
2017-09-11T05:24:36.259Z,150
2017-09-11T05:25:46.197Z,155
2017-09-11T05:26:56.445Z,155
2017-09-11T05:28:06.634Z,160
2017-09-11T05:29:16.894Z,160
2017-09-11T05:30:26.824Z,165
2017-09-11T05:31:37.310Z,170
2017-09-11T05:32:47.558Z,175
2017-09-11T05:33:57.765Z,175
2017-09-11T05:35:07.705Z,180
2017-09-11T05:36:17.966Z,180
2017-09-11T05:37:28.221Z,185
2017-09-11T05:38:38.500Z,185
2017-09-11T05:39:48.716Z,190
2017-09-11T05:40:59.228Z,190
2017-09-11T05:42:09.486Z,195
2017-09-11T05:43:19.756Z,195
2017-09-11T05:44:30.009Z,200
2017-09-11T05:45:40.189Z,205
2017-09-11T05:46:50.446Z,205
2017-09-11T05:48:00.398Z,210
2017-09-11T05:49:10.667Z,215
2017-09-11T05:50:20.916Z,220
2017-09-11T05:51:31.436Z,225
2017-09-11T05:52:41.691Z,230
2017-09-11T05:53:51.231Z,230
2017-09-11T05:55:01.180Z,235
2017-09-11T05:56:11.455Z,240
2017-09-11T05:57:22.158Z,245
2017-09-11T05:58:32.409Z,245
2017-09-11T05:59:42.682Z,245
2017-09-11T06:00:52.620Z,250
2017-09-11T06:02:02.877Z,255
2017-09-11T06:03:13.399Z,260
2017-09-11T06:04:23.651Z,260
2017-09-11T06:05:33.611Z,265
2017-09-11T06:06:43.862Z,270
2017-09-11T06:07:53.822Z,275
2017-09-11T06:09:04.341Z,280
2017-09-11T06:10:14.303Z,280
2017-09-11T06:11:24.265Z,285
2017-09-11T06:12:34.197Z,290
2017-09-11T06:13:44.462Z,295
2017-09-11T06:14:54.975Z,300
2017-09-11T06:16:05.234Z,305
2017-09-11T06:17:15.181Z,310
2017-09-11T06:18:25.470Z,315
2017-09-11T06:19:35.412Z,315
2017-09-11T06:20:45.931Z,315
2017-09-11T06:21:56.188Z,320
2017-09-11T06:23:05.815Z,320
2017-09-11T06:24:16.068Z,320
2017-09-11T06:25:26.324Z,320
2017-09-11T06:26:36.831Z,330
2017-09-11T06:27:47.086Z,335
2017-09-11T06:28:57.044Z,330
2017-09-11T06:30:07.295Z,330
2017-09-11T06:31:17.239Z,335
2017-09-11T06:32:27.762Z,345
2017-09-11T06:33:38.047Z,350
2017-09-11T06:34:47.986Z,360
2017-09-11T06:35:58.246Z,370
2017-09-11T06:37:08.505Z,385
2017-09-11T06:38:19.038Z,390
2017-09-11T06:39:29.288Z,400
2017-09-11T06:40:39.548Z,410
2017-09-11T06:41:49.801Z,420
2017-09-11T06:43:00.059Z,430
2017-09-11T06:44:09.971Z,430
2017-09-11T06:45:20.223Z,440
2017-09-11T06:46:30.173Z,445
2017-09-11T06:47:40.316Z,445
2017-09-11T06:48:50.251Z,450
2017-09-11T06:50:00.753Z,450
2017-09-11T06:51:10.714Z,450
2017-09-11T06:52:20.657Z,445
2017-09-11T06:53:30.947Z,445
2017-09-11T06:54:41.205Z,440
2017-09-11T06:55:51.377Z,440
2017-09-11T06:57:01.645Z,445
2017-09-11T06:58:11.898Z,450
2017-09-11T06:59:22.141Z,455
2017-09-11T07:00:32.400Z,455
2017-09-11T07:01:42.943Z,450
2017-09-11T07:02:52.891Z,450
2017-09-11T07:04:03.140Z,455
2017-09-11T07:05:13.388Z,450
2017-09-11T07:06:23.320Z,450
2017-09-11T07:07:33.515Z,455
2017-09-11T07:08:43.773Z,450
2017-09-11T07:09:54.037Z,450
2017-09-11T07:11:04.292Z,470
2017-09-11T07:12:14.240Z,475
2017-09-11T07:13:24.764Z,465
2017-09-11T07:14:35.015Z,450
2017-09-11T07:15:44.963Z,470
2017-09-11T07:16:54.575Z,470
2017-09-11T07:18:04.832Z,460
2017-09-11T07:19:15.341Z,455
2017-09-11T07:20:25.286Z,455
2017-09-11T07:21:35.221Z,455
2017-09-11T07:22:45.208Z,465
2017-09-11T07:23:55.138Z,460
2017-09-11T07:25:05.660Z,480
2017-09-11T07:26:15.293Z,475
2017-09-11T07:27:25.255Z,490
2017-09-11T07:28:34.918Z,460
2017-09-11T07:29:45.173Z,480
2017-09-11T07:30:55.703Z,470
2017-09-11T07:32:05.664Z,475
2017-09-11T07:33:15.990Z,480
2017-09-11T07:34:25.925Z,490
2017-09-11T07:35:36.178Z,500
2017-09-11T07:36:46.684Z,510
2017-09-11T07:37:56.666Z,520
2017-09-11T07:39:06.945Z,520
2017-09-11T07:40:17.218Z,520
2017-09-11T07:41:27.483Z,500
2017-09-11T07:42:37.991Z,510
2017-09-11T07:43:47.934Z,530
2017-09-11T07:44:58.194Z,540
2017-09-11T07:46:07.825Z,535
2017-09-11T07:47:17.762Z,525
2017-09-11T07:48:27.959Z,525
2017-09-11T07:49:37.928Z,535
2017-09-11T07:50:47.898Z,550
2017-09-11T07:51:58.219Z,540
2017-09-11T07:53:08.502Z,530
2017-09-11T07:54:19.042Z,530
2017-09-11T07:55:29.316Z,525
2017-09-11T07:56:39.586Z,535
2017-09-11T07:57:49.831Z,535
2017-09-11T07:59:00.156Z,535
2017-09-11T08:00:10.364Z,535
2017-09-11T08:01:20.622Z,535
2017-09-11T08:02:30.575Z,535
2017-09-11T08:03:40.192Z,545
2017-09-11T08:04:50.186Z,545
2017-09-11T08:06:00.689Z,555
2017-09-11T08:07:10.937Z,575
2017-09-11T08:08:21.195Z,585
2017-09-11T08:09:31.136Z,590
2017-09-11T08:10:41.425Z,595
2017-09-11T08:11:51.023Z,605
2017-09-11T08:13:01.332Z,610
2017-09-11T08:14:11.619Z,630
2017-09-11T08:15:21.582Z,675
2017-09-11T08:16:31.237Z,625
2017-09-11T08:17:41.149Z,635
2017-09-11T08:18:51.492Z,655
2017-09-11T08:20:01.576Z,715
2017-09-11T08:21:11.663Z,695
2017-09-11T08:22:22.225Z,730
2017-09-11T08:23:32.753Z,740
2017-09-11T08:24:43.041Z,720
2017-09-11T08:25:53.319Z,685
2017-09-11T08:27:03.625Z,680
2017-09-11T08:28:13.579Z,750
2017-09-11T08:29:24.135Z,670
2017-09-11T08:30:34.414Z,675
2017-09-11T08:31:44.361Z,710
2017-09-11T08:32:54.301Z,685
2017-09-11T08:34:04.234Z,735
2017-09-11T08:35:14.737Z,720
2017-09-11T08:36:24.703Z,750
2017-09-11T08:37:34.637Z,775
2017-09-11T08:38:44.611Z,720
2017-09-11T08:39:54.565Z,690
2017-09-11T08:41:05.095Z,710
2017-09-11T08:42:15.354Z,700
2017-09-11T08:43:24.998Z,685
2017-09-11T08:44:34.971Z,660
2017-09-11T08:45:45.269Z,655
2017-09-11T08:46:55.520Z,650
2017-09-11T08:48:05.786Z,650
2017-09-11T08:49:15.737Z,650
2017-09-11T08:50:25.705Z,640
2017-09-11T08:51:35.972Z,635
2017-09-11T08:52:46.488Z,635
2017-09-11T08:53:56.454Z,635
2017-09-11T08:55:06.706Z,640
2017-09-11T08:56:17.004Z,650
2017-09-11T08:57:27.279Z,665
2017-09-11T08:58:37.808Z,690
2017-09-11T08:59:47.783Z,680
2017-09-11T09:00:58.071Z,675
2017-09-11T09:02:08.030Z,670
2017-09-11T09:03:18.313Z,670
2017-09-11T09:04:28.848Z,665
2017-09-11T09:05:39.135Z,655
2017-09-11T09:06:49.096Z,650
2017-09-11T09:07:59.392Z,655
2017-09-11T09:09:09.677Z,670
2017-09-11T09:10:20.198Z,675
2017-09-11T09:11:30.248Z,695
2017-09-11T09:12:40.537Z,705
2017-09-11T09:13:50.822Z,710
2017-09-11T09:15:00.779Z,725
2017-09-11T09:16:11.292Z,735
2017-09-11T09:17:21.238Z,755
2017-09-11T09:18:31.174Z,785
2017-09-11T09:19:41.113Z,770
2017-09-11T09:20:51.053Z,860
2017-09-11T09:22:01.566Z,795
2017-09-11T09:23:11.838Z,795
2017-09-11T09:24:22.104Z,780
2017-09-11T09:25:32.371Z,775
2017-09-11T09:26:42.642Z,850
2017-09-11T09:27:53.152Z,1165
2017-09-11T09:29:03.426Z,1355
2017-09-11T09:30:13.772Z,1030
2017-09-11T09:31:24.077Z,1150
2017-09-11T09:32:34.352Z,1045
2017-09-11T09:33:44.865Z,930
2017-09-11T09:34:55.232Z,840
2017-09-11T09:36:05.507Z,900
2017-09-11T09:37:15.826Z,1620
2017-09-11T09:38:25.771Z,1475
2017-09-11T09:39:36.296Z,1270
2017-09-11T09:40:46.269Z,1455
2017-09-11T09:41:56.541Z,1880
2017-09-11T09:43:06.810Z,1860
2017-09-11T09:44:16.775Z,1375
2017-09-11T09:45:27.339Z,1135
2017-09-11T09:46:37.605Z,1400
2017-09-11T09:47:47.891Z,1250
2017-09-11T09:48:57.885Z,870
2017-09-11T09:50:08.164Z,830
2017-09-11T09:51:18.751Z,900
2017-09-11T09:52:29.053Z,1275
2017-09-11T09:53:39.328Z,1280
2017-09-11T09:54:49.307Z,1645
2017-09-11T09:55:59.604Z,1545
2017-09-11T09:57:10.089Z,1450
2017-09-11T09:58:20.385Z,1730
2017-09-11T09:59:30.663Z,1735
2017-09-11T10:00:40.927Z,1805
2017-09-11T10:01:51.440Z,1850
2017-09-11T10:03:01.925Z,2320
2017-09-11T10:04:11.864Z,2195
2017-09-11T10:05:21.498Z,1535
2017-09-11T10:06:31.144Z,1990
2017-09-11T10:07:41.423Z,2030
2017-09-11T10:08:51.926Z,2360
2017-09-11T10:10:01.876Z,2440
2017-09-11T10:11:12.148Z,2400
2017-09-11T10:12:22.457Z,2515
2017-09-11T10:13:32.679Z,2475
2017-09-11T10:14:43.288Z,2380
2017-09-11T10:15:53.245Z,2555
2017-09-11T10:17:03.206Z,2575
2017-09-11T10:18:13.493Z,2510
2017-09-11T10:19:23.771Z,1720
2017-09-11T10:20:34.340Z,1415
2017-09-11T10:21:44.013Z,2855
2017-09-11T10:22:53.986Z,2825
2017-09-11T10:24:03.932Z,2620
2017-09-11T10:25:14.209Z,2745
2017-09-11T10:26:24.731Z,1320
2017-09-11T10:27:34.683Z,2080
2017-09-11T10:28:44.944Z,1385
2017-09-11T10:29:55.246Z,2465
2017-09-11T10:31:05.552Z,2830
2017-09-11T10:32:16.083Z,2360
2017-09-11T10:33:26.040Z,1835
2017-09-11T10:34:36.008Z,2685
2017-09-11T10:35:46.301Z,2475
2017-09-11T10:36:56.274Z,2470
2017-09-11T10:38:06.815Z,1410
2017-09-11T10:39:17.118Z,1355
2017-09-11T10:40:27.395Z,1295
2017-09-11T10:41:37.358Z,1365
2017-09-11T10:42:47.328Z,1395
2017-09-11T10:43:57.846Z,1395
2017-09-11T10:45:08.157Z,1355
2017-09-11T10:46:18.455Z,1730
2017-09-11T10:47:28.763Z,2180
2017-09-11T10:48:39.046Z,2515
2017-09-11T10:49:49.348Z,2110
2017-09-11T10:50:59.639Z,1915
2017-09-11T10:52:09.929Z,1895
2017-09-11T10:53:20.192Z,1900
2017-09-11T10:54:30.467Z,2165
2017-09-11T10:55:40.988Z,2140
2017-09-11T10:56:50.991Z,1265
2017-09-11T10:58:00.948Z,2050
2017-09-11T10:59:11.208Z,1775
2017-09-11T11:00:21.479Z,1780
2017-09-11T11:01:32.077Z,1740
2017-09-11T11:02:42.589Z,1505
2017-09-11T11:03:52.537Z,1535
2017-09-11T11:05:02.837Z,1455
2017-09-11T11:06:13.102Z,1690
2017-09-11T11:07:23.649Z,1310
2017-09-11T11:08:33.589Z,1200
2017-09-11T11:09:43.838Z,1315
2017-09-11T11:10:54.107Z,1290
2017-09-11T11:12:04.027Z,1120
2017-09-11T11:13:14.238Z,1185
2017-09-11T11:14:24.186Z,1180
2017-09-11T11:15:34.459Z,1530
2017-09-11T11:16:44.715Z,1650
2017-09-11T11:17:54.996Z,1170
2017-09-11T11:19:05.865Z,1485
2017-09-11T11:20:16.128Z,1435
2017-09-11T11:21:26.404Z,1050
2017-09-11T11:22:36.667Z,895
2017-09-11T11:23:46.609Z,835
2017-09-11T11:24:57.126Z,810
2017-09-11T11:26:07.090Z,900
2017-09-11T11:27:17.351Z,995
2017-09-11T11:28:27.312Z,1035
2017-09-11T11:29:37.255Z,985
2017-09-11T11:30:47.808Z,990
2017-09-11T11:31:57.450Z,1180
2017-09-11T11:33:07.736Z,1115
2017-09-11T11:34:18.066Z,965
2017-09-11T11:35:28.209Z,850
2017-09-11T11:36:38.718Z,800
2017-09-11T11:37:49.014Z,775
2017-09-11T11:38:59.330Z,780
2017-09-11T11:40:09.606Z,860
2017-09-11T11:41:20.074Z,920
2017-09-11T11:42:30.739Z,995
2017-09-11T11:43:40.770Z,1120
2017-09-11T11:44:51.064Z,1320
2017-09-11T11:46:01.385Z,2525
2017-09-11T11:47:11.580Z,1205
2017-09-11T11:48:21.517Z,2780
2017-09-11T11:49:31.832Z,1150
2017-09-11T11:50:42.224Z,835
2017-09-11T11:51:52.609Z,655
2017-09-11T11:53:02.586Z,660
2017-09-11T11:54:13.089Z,705
2017-09-11T11:55:23.362Z,805
2017-09-11T11:56:33.630Z,935
2017-09-11T11:57:43.924Z,1205
2017-09-11T11:58:54.215Z,1225
2017-09-11T12:00:04.472Z,1110
2017-09-11T12:01:14.734Z,975
2017-09-11T12:02:24.700Z,915
2017-09-11T12:03:34.695Z,900
2017-09-11T12:04:44.946Z,910
2017-09-11T12:05:55.461Z,920
2017-09-11T12:07:05.411Z,905
2017-09-11T12:08:15.366Z,820
2017-09-11T12:09:25.648Z,740
2017-09-11T12:10:36.053Z,675
2017-09-11T12:11:46.584Z,635
2017-09-11T12:12:56.536Z,615
2017-09-11T12:14:06.494Z,630
2017-09-11T12:15:16.753Z,635
2017-09-11T12:16:27.014Z,605
2017-09-11T12:17:37.598Z,595
2017-09-11T12:18:47.965Z,605
2017-09-11T12:19:58.233Z,605
2017-09-11T12:21:08.213Z,570
2017-09-11T12:22:17.898Z,515
2017-09-11T12:23:28.409Z,490
2017-09-11T12:24:38.360Z,490
2017-09-11T12:25:48.661Z,495
2017-09-11T12:26:58.930Z,495
2017-09-11T12:28:09.238Z,485
2017-09-11T12:29:19.775Z,510
2017-09-11T12:30:29.741Z,515
2017-09-11T12:31:39.716Z,535
2017-09-11T12:32:49.987Z,575
2017-09-11T12:34:00.306Z,580
2017-09-11T12:35:10.216Z,565
2017-09-11T12:36:20.459Z,545
2017-09-11T12:37:30.428Z,540
2017-09-11T12:38:40.346Z,545
2017-09-11T12:39:50.303Z,565
2017-09-11T12:41:00.552Z,595
2017-09-11T12:42:10.809Z,610
2017-09-11T12:43:21.094Z,590
2017-09-11T12:44:31.398Z,570
2017-09-11T12:45:41.357Z,565
2017-09-11T12:46:51.571Z,570
2017-09-11T12:48:01.202Z,560
2017-09-11T12:49:11.467Z,555
2017-09-11T12:50:20.781Z,555
2017-09-11T12:51:31.312Z,570
2017-09-11T12:52:41.513Z,595
2017-09-11T12:53:51.807Z,600
2017-09-11T12:55:01.810Z,585
2017-09-11T12:56:12.084Z,565
2017-09-11T12:57:22.382Z,545
2017-09-11T12:58:32.913Z,540
2017-09-11T12:59:43.212Z,555
2017-09-11T13:00:53.470Z,585
2017-09-11T13:02:03.744Z,620
2017-09-11T13:03:13.704Z,640
2017-09-11T13:04:23.571Z,665
2017-09-11T13:05:33.845Z,700
2017-09-11T13:06:43.788Z,730
2017-09-11T13:07:54.046Z,760
2017-09-11T13:09:03.982Z,800
2017-09-11T13:10:14.433Z,815
2017-09-11T13:11:24.383Z,940
2017-09-11T13:12:34.632Z,935
2017-09-11T13:13:44.895Z,1060
2017-09-11T13:14:55.141Z,985
2017-09-11T13:16:04.710Z,1235
2017-09-11T13:17:14.680Z,1055
2017-09-11T13:18:24.936Z,1150
2017-09-11T13:19:34.886Z,1020
2017-09-11T13:20:45.170Z,1070
2017-09-11T13:21:55.350Z,1695
2017-09-11T13:23:05.616Z,2040
2017-09-11T13:24:15.232Z,1780
2017-09-11T13:25:25.184Z,1845
2017-09-11T13:26:35.438Z,2415
2017-09-11T13:27:45.643Z,3245
2017-09-11T13:28:55.927Z,3095
2017-09-11T13:30:05.867Z,3295
2017-09-11T13:31:16.126Z,3575
2017-09-11T13:32:26.411Z,3570
2017-09-11T13:33:36.904Z,3485
2017-09-11T13:34:47.180Z,1775
2017-09-11T13:35:56.844Z,1550
2017-09-11T13:37:07.103Z,1260
2017-09-11T13:38:17.386Z,2745
2017-09-11T13:39:27.894Z,2465
2017-09-11T13:40:38.168Z,2150
2017-09-11T13:41:48.441Z,2935
2017-09-11T13:42:58.067Z,4040
2017-09-11T13:44:08.037Z,3825
2017-09-11T13:45:18.751Z,1865
2017-09-11T13:46:29.019Z,2265
2017-09-11T13:47:38.968Z,4125
2017-09-11T13:48:49.236Z,2505
2017-09-11T13:49:59.203Z,2015
2017-09-11T13:51:09.386Z,1380
2017-09-11T13:52:19.647Z,1240
2017-09-11T13:53:29.906Z,1185
2017-09-11T13:54:39.872Z,1370
2017-09-11T13:55:50.137Z,1845
2017-09-11T13:57:00.047Z,1410
2017-09-11T13:58:10.314Z,1160
2017-09-11T13:59:20.570Z,1775
2017-09-11T14:00:30.825Z,1030
2017-09-11T14:01:41.096Z,1190
2017-09-11T14:02:51.032Z,990
2017-09-11T14:04:01.298Z,1045
2017-09-11T14:05:11.571Z,2055
2017-09-11T14:06:21.829Z,2640
2017-09-11T14:07:31.805Z,2160
2017-09-11T14:08:42.352Z,2550
2017-09-11T14:09:52.612Z,1930
2017-09-11T14:11:02.911Z,2750
2017-09-11T14:12:13.176Z,3280
2017-09-11T14:13:23.464Z,2465
2017-09-11T14:14:33.678Z,1395
2017-09-11T14:15:43.937Z,1205
2017-09-11T14:16:54.195Z,1355
2017-09-11T14:18:04.452Z,1460
2017-09-11T14:19:14.397Z,1305
2017-09-11T14:20:24.936Z,835
2017-09-11T14:21:34.874Z,760
2017-09-11T14:22:44.505Z,720
2017-09-11T14:23:54.438Z,655
2017-09-11T14:25:04.695Z,600
2017-09-11T14:26:15.327Z,580
2017-09-11T14:27:25.568Z,595
2017-09-11T14:28:35.816Z,630
2017-09-11T14:29:45.760Z,685
2017-09-11T14:30:56.024Z,720
2017-09-11T14:32:06.561Z,850
2017-09-11T14:33:16.797Z,2175
2017-09-11T14:34:26.435Z,2740
2017-09-11T14:35:36.680Z,1980
2017-09-11T14:36:46.953Z,2575
2017-09-11T14:37:57.463Z,1415
2017-09-11T14:39:07.766Z,1465
2017-09-11T14:40:18.023Z,1045
2017-09-11T14:41:28.320Z,925
2017-09-11T14:42:38.277Z,790
2017-09-11T14:43:48.473Z,660
2017-09-11T14:44:58.734Z,595
2017-09-11T14:46:08.996Z,560
2017-09-11T14:47:18.943Z,520
2017-09-11T14:48:29.276Z,510
2017-09-11T14:49:39.800Z,460
2017-09-11T14:50:49.744Z,440
2017-09-11T14:52:00.003Z,450
2017-09-11T14:53:10.271Z,455
2017-09-11T14:54:20.557Z,455
2017-09-11T14:55:31.147Z,445
2017-09-11T14:56:41.402Z,440
2017-09-11T14:57:51.340Z,440
2017-09-11T14:59:01.294Z,445
2017-09-11T15:00:11.572Z,445
2017-09-11T15:01:22.092Z,460
2017-09-11T15:02:32.365Z,600
2017-09-11T15:03:42.621Z,650
2017-09-11T15:04:52.887Z,625
2017-09-11T15:06:03.171Z,570
2017-09-11T15:07:13.684Z,530
2017-09-11T15:08:23.957Z,480
2017-09-11T15:09:34.109Z,405
2017-09-11T15:10:44.371Z,370
2017-09-11T15:11:54.640Z,400
2017-09-11T15:13:04.842Z,480
2017-09-11T15:14:15.101Z,565
2017-09-11T15:15:25.065Z,560
2017-09-11T15:16:35.010Z,540
2017-09-11T15:17:45.272Z,515
2017-09-11T15:18:55.788Z,505
2017-09-11T15:20:06.061Z,495
2017-09-11T15:21:16.342Z,475
2017-09-11T15:22:26.607Z,445
2017-09-11T15:23:36.561Z,395
2017-09-11T15:24:47.069Z,345
2017-09-11T15:25:57.327Z,335
2017-09-11T15:27:07.584Z,355
2017-09-11T15:28:17.526Z,360
2017-09-11T15:29:27.804Z,380
2017-09-11T15:30:38.014Z,385
2017-09-11T15:31:47.637Z,355
2017-09-11T15:32:57.922Z,320
2017-09-11T15:34:08.178Z,305
2017-09-11T15:35:17.493Z,300
2017-09-11T15:36:28.002Z,285
2017-09-11T15:37:38.262Z,275
2017-09-11T15:38:48.539Z,285
2017-09-11T15:39:58.827Z,300
2017-09-11T15:41:09.078Z,295
2017-09-11T15:42:19.620Z,255
2017-09-11T15:43:29.882Z,205
2017-09-11T15:44:40.372Z,190
2017-09-11T15:45:50.312Z,185
2017-09-11T15:47:00.568Z,195
2017-09-11T15:48:11.079Z,195
2017-09-11T15:49:21.355Z,195
2017-09-11T15:50:30.981Z,205
2017-09-11T15:51:40.961Z,235
2017-09-11T15:52:51.231Z,260
2017-09-11T15:54:01.435Z,270
2017-09-11T15:55:11.709Z,280
2017-09-11T15:56:21.655Z,280
2017-09-11T15:57:31.939Z,270
2017-09-11T15:58:41.873Z,265
2017-09-11T15:59:52.389Z,255
2017-09-11T16:01:02.666Z,240
2017-09-11T16:02:12.603Z,215
2017-09-11T16:03:22.873Z,195
2017-09-11T16:04:33.138Z,185
2017-09-11T16:05:43.336Z,180
2017-09-11T16:06:53.594Z,175
2017-09-11T16:08:03.222Z,175
2017-09-11T16:09:12.867Z,175
2017-09-11T16:10:22.809Z,170
2017-09-11T16:11:33.364Z,165
2017-09-11T16:12:43.327Z,170
2017-09-11T16:13:53.272Z,190
2017-09-11T16:15:03.543Z,190
2017-09-11T16:16:13.815Z,175
2017-09-11T16:17:24.330Z,165
2017-09-11T16:18:33.946Z,170
2017-09-11T16:19:44.236Z,185